createdAt,value
2022-10-20T00:02:06.007Z,23.60
2022-10-20T00:04:13.635Z,23.60
2022-10-20T00:06:30.571Z,23.60
2022-10-20T00:08:37.222Z,23.70
2022-10-20T00:10:58.486Z,23.70
2022-10-20T00:13:09.649Z,23.70
2022-10-20T00:15:15.670Z,23.80
2022-10-20T00:17:26.581Z,23.80
2022-10-20T00:19:38.602Z,23.80
2022-10-20T00:21:48.372Z,23.90
2022-10-20T00:24:07.783Z,23.90
2022-10-20T00:26:33.748Z,23.90
2022-10-20T00:28:39.056Z,23.90
2022-10-20T00:30:59.919Z,23.90
2022-10-20T00:33:20.836Z,24.00
2022-10-20T00:35:27.531Z,24.00
2022-10-20T00:37:37.974Z,24.00
2022-10-20T00:39:44.730Z,24.00
2022-10-20T00:42:03.268Z,24.00
2022-10-20T00:44:22.896Z,24.00
2022-10-20T00:46:38.028Z,24.00
2022-10-20T00:48:44.369Z,24.10
2022-10-20T00:50:50.265Z,24.10
2022-10-20T00:52:54.753Z,24.10
2022-10-20T00:54:59.954Z,24.10
2022-10-20T00:57:04.053Z,24.10
2022-10-20T00:59:10.242Z,24.20
2022-10-20T01:01:22.217Z,24.20
2022-10-20T01:03:32.250Z,24.20
2022-10-20T01:05:37.631Z,24.20
2022-10-20T01:07:45.486Z,24.20
2022-10-20T01:09:50.507Z,24.20
2022-10-20T01:12:10.109Z,24.20
2022-10-20T01:14:39.498Z,24.20
2022-10-20T01:16:47.659Z,24.30
2022-10-20T01:19:04.651Z,24.30
2022-10-20T01:21:16.366Z,24.40
2022-10-20T01:23:52.701Z,24.40
2022-10-20T01:26:12.378Z,24.50
2022-10-20T01:28:27.658Z,24.50
2022-10-20T01:30:34.978Z,24.60
2022-10-20T01:32:42.699Z,24.60
2022-10-20T01:35:03.446Z,24.60
2022-10-20T01:37:47.506Z,24.70
2022-10-20T01:39:56.016Z,24.80
2022-10-20T01:42:05.486Z,24.80
2022-10-20T01:44:13.642Z,24.80
2022-10-20T01:46:20.600Z,24.90
2022-10-20T01:48:30.354Z,24.90
2022-10-20T01:50:39.204Z,25.00
2022-10-20T01:52:47.077Z,25.00
2022-10-20T01:54:52.813Z,25.10
2022-10-20T01:57:05.428Z,25.10
2022-10-20T01:59:24.700Z,25.10
2022-10-20T02:01:33.069Z,25.20
2022-10-20T02:03:47.987Z,25.30
2022-10-20T02:06:01.633Z,25.30
2022-10-20T02:08:34.910Z,25.30
2022-10-20T02:10:49.105Z,25.40
2022-10-20T02:12:56.169Z,25.40
2022-10-20T02:15:00.394Z,25.40
2022-10-20T02:17:08.069Z,25.40
2022-10-20T02:19:15.613Z,25.30
2022-10-20T02:21:19.682Z,25.40
2022-10-20T02:23:26.313Z,25.40
2022-10-20T02:25:30.112Z,25.50
2022-10-20T02:27:35.697Z,25.40
2022-10-20T02:29:41.211Z,25.50
2022-10-20T02:31:48.191Z,25.50
2022-10-20T02:33:51.947Z,25.40
2022-10-20T02:36:13.469Z,25.50
2022-10-20T02:38:38.753Z,25.60
2022-10-20T02:40:46.646Z,25.60
2022-10-20T02:42:53.928Z,25.80
2022-10-20T02:45:03.063Z,25.50
2022-10-20T02:47:13.322Z,25.40
2022-10-20T02:49:32.340Z,25.30
2022-10-20T02:51:39.143Z,25.40
2022-10-20T02:53:43.647Z,25.60
2022-10-20T02:55:50.141Z,25.80
2022-10-20T02:57:56.163Z,25.80
2022-10-20T03:00:00.494Z,25.90
2022-10-20T03:02:04.701Z,26.00
2022-10-20T03:04:13.705Z,26.20
2022-10-20T03:06:25.170Z,26.20
2022-10-20T03:08:39.075Z,26.30
2022-10-20T03:10:51.251Z,26.40
2022-10-20T03:12:57.030Z,26.50
2022-10-20T03:15:23.117Z,26.50
2022-10-20T03:17:34.988Z,26.40
2022-10-20T03:19:57.819Z,26.30
2022-10-20T03:22:02.980Z,26.30
2022-10-20T03:24:08.918Z,26.40
2022-10-20T03:26:12.789Z,26.40
2022-10-20T03:28:19.207Z,26.50
2022-10-20T03:30:25.590Z,26.60
2022-10-20T03:32:29.665Z,26.60
2022-10-20T03:34:35.950Z,26.70
2022-10-20T03:36:42.741Z,26.70
2022-10-20T03:38:47.854Z,26.80
2022-10-20T03:40:52.848Z,26.90
2022-10-20T03:43:07.215Z,26.90
2022-10-20T03:45:17.691Z,26.80
2022-10-20T03:47:25.862Z,26.90
2022-10-20T03:49:29.696Z,26.90
2022-10-20T03:51:34.161Z,27.00
2022-10-20T03:53:38.489Z,27.00
2022-10-20T03:55:44.634Z,27.00
2022-10-20T03:57:48.475Z,27.10
2022-10-20T03:59:56.173Z,27.10
2022-10-20T04:02:00.615Z,27.30
2022-10-20T04:04:05.929Z,27.30
2022-10-20T04:06:12.515Z,27.30
2022-10-20T04:08:21.789Z,27.20
2022-10-20T04:10:28.187Z,27.30
2022-10-20T04:12:39.696Z,27.30
2022-10-20T04:14:47.265Z,27.20
2022-10-20T04:16:59.378Z,27.30
2022-10-20T04:19:04.052Z,27.40
2022-10-20T04:21:12.532Z,27.40
2022-10-20T04:23:17.301Z,27.40
2022-10-20T04:25:42.039Z,27.50
2022-10-20T04:27:48.071Z,27.50
2022-10-20T04:30:02.767Z,27.60
2022-10-20T04:32:11.723Z,27.70
2022-10-20T04:34:17.926Z,27.70
2022-10-20T04:36:27.861Z,27.70
2022-10-20T04:38:42.403Z,27.70
2022-10-20T04:40:55.008Z,27.70
2022-10-20T04:43:01.973Z,27.60
2022-10-20T04:45:10.466Z,27.50
2022-10-20T04:47:18.820Z,27.50
2022-10-20T04:49:25.307Z,27.30
2022-10-20T04:51:29.501Z,27.20
2022-10-20T04:53:36.181Z,27.30
2022-10-20T04:55:40.056Z,27.20
2022-10-20T04:57:46.955Z,27.30
2022-10-20T04:59:52.449Z,27.30
2022-10-20T05:01:56.530Z,27.30
2022-10-20T05:04:02.753Z,27.20
2022-10-20T05:06:09.801Z,27.30
2022-10-20T05:08:13.668Z,27.30
2022-10-20T05:10:20.390Z,27.20
2022-10-20T05:12:26.295Z,27.10
2022-10-20T05:14:30.474Z,27.20
2022-10-20T05:16:34.763Z,27.20
2022-10-20T05:18:40.832Z,27.30
2022-10-20T05:21:07.362Z,27.50
2022-10-20T05:23:09.032Z,27.60
2022-10-20T05:25:35.638Z,27.70
2022-10-20T05:27:40.415Z,27.80
2022-10-20T05:29:47.263Z,28.00
2022-10-20T05:31:53.177Z,27.90
2022-10-20T05:33:59.479Z,28.00
2022-10-20T05:36:13.862Z,28.00
2022-10-20T05:38:23.285Z,28.10
2022-10-20T05:40:27.100Z,28.20
2022-10-20T05:42:33.763Z,28.20
2022-10-20T05:44:37.900Z,28.20
2022-10-20T05:46:43.410Z,27.90
2022-10-20T05:48:47.796Z,28.00
2022-10-20T05:50:54.107Z,28.20
2022-10-20T05:52:58.568Z,28.30
2022-10-20T05:55:03.759Z,28.50
2022-10-20T05:57:10.739Z,28.60
2022-10-20T05:59:14.964Z,28.60
2022-10-20T06:01:27.510Z,28.50
2022-10-20T06:03:31.822Z,28.50
2022-10-20T06:05:35.923Z,28.60
2022-10-20T06:07:39.852Z,28.70
2022-10-20T06:09:43.631Z,28.80
2022-10-20T06:11:48.683Z,28.70
2022-10-20T06:13:53.313Z,28.70
2022-10-20T06:16:02.127Z,28.70
2022-10-20T06:18:06.299Z,28.60
2022-10-20T06:20:12.721Z,28.60
2022-10-20T06:22:18.550Z,28.40
2022-10-20T06:24:22.562Z,28.40
2022-10-20T06:26:32.581Z,28.50
2022-10-20T06:28:37.209Z,28.50
2022-10-20T06:30:42.806Z,28.60
2022-10-20T06:32:49.555Z,28.60
2022-10-20T06:34:55.792Z,28.70
2022-10-20T06:37:00.180Z,28.60
2022-10-20T06:39:21.367Z,28.50
2022-10-20T06:41:30.392Z,28.60
2022-10-20T06:43:47.820Z,28.70
2022-10-20T06:46:04.803Z,28.50
2022-10-20T06:48:09.219Z,28.50
2022-10-20T06:50:13.494Z,28.60
2022-10-20T06:52:20.887Z,28.60
2022-10-20T06:54:24.844Z,28.70
2022-10-20T06:56:30.219Z,28.70
2022-10-20T06:58:37.594Z,28.70
2022-10-20T07:00:41.588Z,28.60
2022-10-20T07:02:46.070Z,28.60
2022-10-20T07:04:51.631Z,28.70
2022-10-20T07:06:56.589Z,28.60
2022-10-20T07:09:00.823Z,28.40
2022-10-20T07:11:07.367Z,28.40
2022-10-20T07:13:13.894Z,28.50
2022-10-20T07:15:18.300Z,28.50
2022-10-20T07:17:24.340Z,28.60
2022-10-20T07:19:28.672Z,28.70
2022-10-20T07:21:36.500Z,28.80
2022-10-20T07:23:42.315Z,28.80
2022-10-20T07:25:46.863Z,28.80
2022-10-20T07:27:50.834Z,28.80
2022-10-20T07:29:56.034Z,28.80
2022-10-20T07:32:03.303Z,28.90
2022-10-20T07:34:25.137Z,28.90
2022-10-20T07:36:35.523Z,28.90
2022-10-20T07:38:42.301Z,29.00
2022-10-20T07:40:46.229Z,29.10
2022-10-20T07:42:52.688Z,29.10
2022-10-20T07:44:58.631Z,29.20
2022-10-20T07:47:03.693Z,29.20
2022-10-20T07:51:39.660Z,29.30
2022-10-20T07:53:46.105Z,29.20
2022-10-20T07:55:50.402Z,29.20
2022-10-20T07:57:55.009Z,29.30
2022-10-20T07:59:59.882Z,29.10
2022-10-20T08:02:06.069Z,29.00
2022-10-20T08:04:12.585Z,29.00
2022-10-20T08:06:16.569Z,29.10
2022-10-20T08:08:21.965Z,29.10
2022-10-20T08:10:27.936Z,29.10
2022-10-20T08:12:32.997Z,29.10
2022-10-20T08:14:41.065Z,29.10
2022-10-20T08:19:21.160Z,29.20
2022-10-20T08:21:26.386Z,29.30
2022-10-20T08:23:32.785Z,29.40
2022-10-20T08:25:36.962Z,29.40
2022-10-20T08:27:43.709Z,29.40
2022-10-20T08:30:00.372Z,29.40
2022-10-20T08:32:15.547Z,29.40
2022-10-20T08:34:21.680Z,29.40
2022-10-20T08:36:25.951Z,29.30
2022-10-20T08:38:30.166Z,29.20
2022-10-20T08:40:36.747Z,29.20
2022-10-20T08:42:43.183Z,29.10
2022-10-20T08:44:47.723Z,29.10
2022-10-20T08:46:52.552Z,29.10
2022-10-20T08:48:57.058Z,29.10
2022-10-20T08:51:03.510Z,29.00
2022-10-20T08:53:11.632Z,29.00
2022-10-20T08:57:34.762Z,28.90
2022-10-20T08:59:42.613Z,29.00
2022-10-20T09:01:46.974Z,29.00
2022-10-20T09:03:52.730Z,28.90
2022-10-20T09:06:19.177Z,28.90
2022-10-20T09:08:25.090Z,28.90
2022-10-20T09:10:29.580Z,28.80
2022-10-20T09:12:41.647Z,28.80
2022-10-20T09:14:56.445Z,28.80
2022-10-20T09:17:04.625Z,28.70
2022-10-20T09:19:22.020Z,28.60
2022-10-20T09:21:28.129Z,28.60
2022-10-20T09:23:41.674Z,28.60
2022-10-20T09:25:46.798Z,28.60
2022-10-20T09:28:05.521Z,28.60
2022-10-20T09:30:20.292Z,28.60
2022-10-20T09:32:56.439Z,28.60
2022-10-20T09:35:20.347Z,28.60
2022-10-20T09:37:27.559Z,28.60
2022-10-20T09:39:54.979Z,28.50
2022-10-20T09:42:05.435Z,28.50
2022-10-20T09:44:10.302Z,28.50
2022-10-20T09:46:16.312Z,28.50
2022-10-20T09:48:25.685Z,28.50
2022-10-20T09:50:48.523Z,28.40
2022-10-20T09:53:01.777Z,28.40
2022-10-20T09:55:09.099Z,28.40
2022-10-20T09:57:22.054Z,28.40
2022-10-20T09:59:29.112Z,28.30
2022-10-20T10:01:35.076Z,28.30
2022-10-20T10:03:40.070Z,28.30
2022-10-20T10:05:46.212Z,28.30
2022-10-20T10:08:00.418Z,28.30
2022-10-20T10:10:08.792Z,28.20
2022-10-20T10:12:14.953Z,28.20
2022-10-20T10:14:23.122Z,28.20
2022-10-20T10:16:47.165Z,28.20
2022-10-20T10:18:57.265Z,28.20
2022-10-20T10:21:08.700Z,28.20
2022-10-20T10:23:28.950Z,28.10
2022-10-20T10:25:34.944Z,28.10
2022-10-20T10:27:42.617Z,28.10
2022-10-20T10:29:57.665Z,28.00
2022-10-20T10:32:14.423Z,28.10
2022-10-20T10:34:29.854Z,28.10
2022-10-20T10:36:35.588Z,28.00
2022-10-20T10:38:40.063Z,28.10
2022-10-20T10:40:50.694Z,28.00
2022-10-20T10:43:07.482Z,28.00
2022-10-20T10:45:24.550Z,28.00
2022-10-20T10:47:40.372Z,28.00
2022-10-20T10:49:49.225Z,27.90
2022-10-20T10:52:06.342Z,27.80
2022-10-20T10:54:11.844Z,27.80
2022-10-20T10:56:28.546Z,27.80
2022-10-20T10:58:45.580Z,27.70
2022-10-20T11:01:01.863Z,27.60
2022-10-20T11:03:15.795Z,27.60
2022-10-20T11:05:26.817Z,27.60
2022-10-20T11:07:35.489Z,27.60
2022-10-20T11:09:43.718Z,27.50
2022-10-20T11:12:11.431Z,27.50
2022-10-20T11:16:32.803Z,27.60
2022-10-20T11:18:50.184Z,27.60
2022-10-20T11:20:59.620Z,27.60
2022-10-20T11:23:19.605Z,27.60
2022-10-20T11:25:34.673Z,27.50
2022-10-20T11:27:42.933Z,27.50
2022-10-20T11:29:49.331Z,27.40
2022-10-20T11:32:02.613Z,27.50
2022-10-20T11:34:12.929Z,27.40
2022-10-20T11:36:20.978Z,27.40
2022-10-20T11:38:32.482Z,27.50
2022-10-20T11:40:41.655Z,27.30
2022-10-20T11:43:00.733Z,27.30
2022-10-20T11:45:26.047Z,27.40
2022-10-20T11:47:36.564Z,27.40
2022-10-20T11:49:45.056Z,27.40
2022-10-20T11:52:02.346Z,27.40
2022-10-20T11:54:31.973Z,27.40
2022-10-20T11:56:44.317Z,27.20
2022-10-20T11:59:12.202Z,27.20
2022-10-20T12:01:32.177Z,27.20
2022-10-20T12:03:39.868Z,27.10
2022-10-20T12:06:00.441Z,27.20
2022-10-20T12:08:28.780Z,27.20
2022-10-20T12:11:00.160Z,27.30
2022-10-20T12:13:23.177Z,27.30
2022-10-20T12:15:35.387Z,27.30
2022-10-20T12:17:43.094Z,27.30
2022-10-20T12:19:51.858Z,27.30
2022-10-20T12:22:07.729Z,27.30
2022-10-20T12:24:31.104Z,27.20
2022-10-20T12:26:42.370Z,27.20
2022-10-20T12:28:51.382Z,27.20
2022-10-20T12:31:06.180Z,27.20
2022-10-20T12:33:22.026Z,27.20
2022-10-20T12:35:30.341Z,27.30
2022-10-20T12:37:59.552Z,27.10
2022-10-20T12:40:07.854Z,27.00
2022-10-20T12:42:22.964Z,27.00
2022-10-20T12:44:28.043Z,26.90
2022-10-20T12:46:33.960Z,27.00
2022-10-20T12:48:41.952Z,27.00
2022-10-20T12:50:46.629Z,27.00
2022-10-20T12:52:53.243Z,27.10
2022-10-20T12:55:08.181Z,27.00
2022-10-20T12:57:42.742Z,27.00
2022-10-20T13:00:01.973Z,26.90
2022-10-20T13:02:11.616Z,27.00
2022-10-20T13:04:47.657Z,26.80
2022-10-20T13:07:09.271Z,26.90
2022-10-20T13:09:18.608Z,27.00
2022-10-20T13:11:35.802Z,26.90
2022-10-20T13:14:03.050Z,26.90
2022-10-20T13:16:14.573Z,26.90
2022-10-20T13:18:28.373Z,27.00
2022-10-20T13:20:49.439Z,27.00
2022-10-20T13:22:56.590Z,26.90
2022-10-20T13:25:04.240Z,26.80
2022-10-20T13:27:25.998Z,26.80
2022-10-20T13:29:39.377Z,26.90
2022-10-20T13:32:01.660Z,26.90
2022-10-20T13:34:25.298Z,26.90
2022-10-20T13:36:45.790Z,26.90
2022-10-20T13:39:00.316Z,26.80
2022-10-20T13:41:11.416Z,26.80
2022-10-20T13:43:29.472Z,26.80
2022-10-20T13:45:48.709Z,26.80
2022-10-20T13:48:07.092Z,26.80
2022-10-20T13:50:14.097Z,26.90
2022-10-20T13:52:18.139Z,26.90
2022-10-20T13:54:26.594Z,26.90
2022-10-20T13:56:34.940Z,26.90
2022-10-20T13:58:42.306Z,26.90
2022-10-20T14:00:57.837Z,27.00
2022-10-20T14:03:19.343Z,26.90
2022-10-20T14:05:30.689Z,26.80
2022-10-20T14:07:40.289Z,26.90
2022-10-20T14:09:51.435Z,26.70
2022-10-20T14:12:07.339Z,26.70
2022-10-20T14:14:29.006Z,26.80
2022-10-20T14:16:43.412Z,26.70
2022-10-20T14:19:03.086Z,26.80
2022-10-20T14:21:16.998Z,26.70
2022-10-20T14:23:21.481Z,26.60
2022-10-20T14:25:28.502Z,26.60
2022-10-20T14:27:33.390Z,26.60
2022-10-20T14:29:39.458Z,26.70
2022-10-20T14:31:43.659Z,26.80
2022-10-20T14:33:54.805Z,26.80
2022-10-20T14:36:05.785Z,26.70
2022-10-20T14:38:18.201Z,26.70
2022-10-20T14:40:44.670Z,26.60
2022-10-20T14:43:02.125Z,26.60
2022-10-20T14:45:09.022Z,26.70
2022-10-20T14:47:20.449Z,26.70
2022-10-20T14:49:45.009Z,26.70
2022-10-20T14:51:57.810Z,26.60
2022-10-20T14:54:28.412Z,26.60
2022-10-20T14:56:33.167Z,26.60
2022-10-20T14:58:58.773Z,26.60
2022-10-20T15:01:15.512Z,26.50
2022-10-20T15:03:19.580Z,26.60
2022-10-20T15:05:37.408Z,26.50
2022-10-20T15:07:43.818Z,26.50
2022-10-20T15:09:48.906Z,26.60
2022-10-20T15:11:53.051Z,26.60
2022-10-20T15:14:02.152Z,26.50
2022-10-20T15:16:09.445Z,26.60
2022-10-20T15:18:20.983Z,26.50
2022-10-20T15:20:36.576Z,26.50
2022-10-20T15:22:43.787Z,26.60
2022-10-20T15:24:52.762Z,26.60
2022-10-20T15:27:16.087Z,26.60
2022-10-20T15:29:22.485Z,26.50
2022-10-20T15:31:28.837Z,26.50
2022-10-20T15:33:36.192Z,26.40
2022-10-20T15:35:48.597Z,26.40
2022-10-20T15:37:54.862Z,26.40
2022-10-20T15:40:01.541Z,26.40
2022-10-20T15:42:12.441Z,26.40
2022-10-20T15:44:22.510Z,26.50
2022-10-20T15:46:28.549Z,26.50
2022-10-20T15:48:32.959Z,26.50
2022-10-20T15:50:39.136Z,26.60
2022-10-20T15:52:44.039Z,26.50
2022-10-20T15:54:48.649Z,26.40
2022-10-20T15:56:55.375Z,26.30
2022-10-20T15:59:01.561Z,26.30
2022-10-20T16:01:08.686Z,26.20
2022-10-20T16:03:18.021Z,26.10
2022-10-20T16:05:24.330Z,26.10
2022-10-20T16:07:28.284Z,26.20
2022-10-20T16:09:34.652Z,26.10
2022-10-20T16:11:39.867Z,26.00
2022-10-20T16:13:44.385Z,26.10
2022-10-20T16:15:52.895Z,26.10
2022-10-20T16:17:59.238Z,26.10
2022-10-20T16:20:03.793Z,26.20
2022-10-20T16:22:13.275Z,26.10
2022-10-20T16:24:19.504Z,26.00
2022-10-20T16:26:25.619Z,26.10
2022-10-20T16:28:30.073Z,26.00
2022-10-20T16:30:34.534Z,26.00
2022-10-20T16:32:46.127Z,26.00
2022-10-20T16:34:52.355Z,26.00
2022-10-20T16:36:56.684Z,26.00
2022-10-20T16:39:05.883Z,26.10
2022-10-20T16:41:14.986Z,26.10
2022-10-20T16:43:19.000Z,26.10
2022-10-20T16:45:25.565Z,26.20
2022-10-20T16:47:31.547Z,26.20
2022-10-20T16:49:36.487Z,26.00
2022-10-20T16:51:42.640Z,25.90
2022-10-20T16:53:50.834Z,25.90
2022-10-20T16:55:55.494Z,25.80
2022-10-20T16:58:01.713Z,25.80
2022-10-20T17:00:08.364Z,25.80
2022-10-20T17:02:24.289Z,25.80
2022-10-20T17:04:30.807Z,25.80
2022-10-20T17:06:36.759Z,25.80
2022-10-20T17:08:41.237Z,25.90
2022-10-20T17:10:49.850Z,25.90
2022-10-20T17:12:55.696Z,26.00
2022-10-20T17:15:00.407Z,25.90
2022-10-20T17:17:06.954Z,25.90
2022-10-20T17:19:13.497Z,25.90
2022-10-20T17:21:17.631Z,25.90
2022-10-20T17:23:26.098Z,25.90
2022-10-20T17:25:32.851Z,25.90
2022-10-20T17:27:37.186Z,25.80
2022-10-20T17:29:44.384Z,25.70
2022-10-20T17:31:55.025Z,25.60
2022-10-20T17:33:59.585Z,25.60
2022-10-20T17:36:07.943Z,25.60
2022-10-20T17:38:18.115Z,25.60
2022-10-20T17:40:23.114Z,25.60
2022-10-20T17:42:32.209Z,25.50
2022-10-20T17:44:38.970Z,25.40
2022-10-20T17:46:44.383Z,25.50
2022-10-20T17:48:50.997Z,25.50
2022-10-20T17:51:05.630Z,25.50
2022-10-20T17:53:11.715Z,25.50
2022-10-20T17:55:18.174Z,25.60
2022-10-20T17:57:41.939Z,25.60
2022-10-20T17:59:54.014Z,25.50
2022-10-20T18:02:01.578Z,25.50
2022-10-20T18:04:11.102Z,25.60
2022-10-20T18:06:20.101Z,25.50
2022-10-20T18:08:26.874Z,25.50
2022-10-20T18:10:31.961Z,25.50
2022-10-20T18:12:37.124Z,25.60
2022-10-20T18:14:45.558Z,25.60
2022-10-20T18:16:55.245Z,25.60
2022-10-20T18:19:01.696Z,25.60
2022-10-20T18:21:11.972Z,25.50
2022-10-20T18:23:26.239Z,25.60
2022-10-20T18:25:33.516Z,25.60
2022-10-20T18:27:40.171Z,25.50
2022-10-20T18:29:49.833Z,25.50
2022-10-20T18:31:58.431Z,25.60
2022-10-20T18:34:10.962Z,25.40
2022-10-20T18:36:19.583Z,25.40
2022-10-20T18:38:24.051Z,25.40
2022-10-20T18:40:33.684Z,25.40
2022-10-20T18:42:48.166Z,25.40
2022-10-20T18:44:53.510Z,25.30
2022-10-20T18:47:03.168Z,25.30
2022-10-20T18:49:11.373Z,25.40
2022-10-20T18:51:21.227Z,25.30
2022-10-20T18:53:29.307Z,25.30
2022-10-20T18:55:38.934Z,25.20
2022-10-20T18:57:45.246Z,25.20
2022-10-20T18:59:55.279Z,25.20
2022-10-20T19:02:06.099Z,25.20
2022-10-20T19:04:17.877Z,25.10
2022-10-20T19:06:29.488Z,25.10
2022-10-20T19:08:40.256Z,25.10
2022-10-20T19:10:46.455Z,25.10
2022-10-20T19:12:53.308Z,25.10
2022-10-20T19:14:58.012Z,24.90
2022-10-20T19:17:04.213Z,25.00
2022-10-20T19:19:20.936Z,24.80
2022-10-20T19:21:27.493Z,24.70
2022-10-20T19:23:33.393Z,24.70
2022-10-20T19:25:41.402Z,24.60
2022-10-20T19:27:49.981Z,24.60
2022-10-20T19:29:59.030Z,24.70
2022-10-20T19:32:12.365Z,24.70
2022-10-20T19:34:23.570Z,24.70
2022-10-20T19:36:29.823Z,24.80
2022-10-20T19:38:41.980Z,24.60
2022-10-20T19:40:50.016Z,24.70
2022-10-20T19:42:58.244Z,24.90
2022-10-20T19:45:05.133Z,24.90
2022-10-20T19:47:18.108Z,24.90
2022-10-20T19:49:24.985Z,24.80
2022-10-20T19:51:35.221Z,24.80
2022-10-20T19:53:41.160Z,24.80
2022-10-20T19:55:52.601Z,24.80
2022-10-20T19:58:02.014Z,24.80
2022-10-20T20:00:08.632Z,24.80
2022-10-20T20:02:23.172Z,24.80
2022-10-20T20:04:53.181Z,24.90
2022-10-20T20:07:02.342Z,24.70
2022-10-20T20:09:24.280Z,24.80
2022-10-20T20:11:39.336Z,24.80
2022-10-20T20:13:48.610Z,24.80
2022-10-20T20:16:08.361Z,24.80
2022-10-20T20:18:23.277Z,24.70
2022-10-20T20:20:29.123Z,24.70
2022-10-20T20:22:36.903Z,24.70
2022-10-20T20:25:05.131Z,24.70
2022-10-20T20:27:13.160Z,24.60
2022-10-20T20:29:17.793Z,24.60
2022-10-20T20:31:24.991Z,24.60
2022-10-20T20:33:48.937Z,24.60
2022-10-20T20:35:58.576Z,24.50
2022-10-20T20:38:06.312Z,24.50
2022-10-20T20:40:13.276Z,24.50
2022-10-20T20:42:21.545Z,24.50
2022-10-20T20:44:46.358Z,24.50
2022-10-20T20:47:05.150Z,24.40
2022-10-20T20:49:19.921Z,24.40
2022-10-20T20:51:46.985Z,24.40
2022-10-20T20:53:57.445Z,24.30
2022-10-20T20:56:02.917Z,24.20
2022-10-20T20:58:16.590Z,24.30
2022-10-20T21:00:22.943Z,24.10
2022-10-20T21:02:32.365Z,24.20
2022-10-20T21:04:56.939Z,24.30
2022-10-20T21:07:03.197Z,24.20
2022-10-20T21:09:13.138Z,24.10
2022-10-20T21:11:23.560Z,24.00
2022-10-20T21:13:28.758Z,24.00
2022-10-20T21:15:34.001Z,24.00
2022-10-20T21:17:43.223Z,24.00
2022-10-20T21:19:47.888Z,24.00
2022-10-20T21:21:52.100Z,24.10
2022-10-20T21:24:02.066Z,24.10
2022-10-20T21:26:06.653Z,24.10
2022-10-20T21:28:14.013Z,24.00
2022-10-20T21:30:33.986Z,23.90
2022-10-20T21:32:42.151Z,23.60
2022-10-20T21:34:48.514Z,23.70
2022-10-20T21:36:57.668Z,23.80
2022-10-20T21:39:02.046Z,23.90
2022-10-20T21:41:12.270Z,23.90
2022-10-20T21:43:27.887Z,23.80
2022-10-20T21:45:33.777Z,23.90
2022-10-20T21:47:45.023Z,23.90
2022-10-20T21:50:12.345Z,23.80
2022-10-20T21:52:16.997Z,23.80
2022-10-20T21:54:26.419Z,23.90
2022-10-20T21:56:37.289Z,23.90
2022-10-20T21:58:43.498Z,23.70
2022-10-20T22:00:49.107Z,23.80
2022-10-20T22:02:57.217Z,23.80
2022-10-20T22:05:01.590Z,23.90
2022-10-20T22:07:06.370Z,23.90
2022-10-20T22:09:16.466Z,23.70
2022-10-20T22:11:23.652Z,23.60
2022-10-20T22:13:43.411Z,23.70
2022-10-20T22:15:50.366Z,23.70
2022-10-20T22:17:54.531Z,23.80
2022-10-20T22:19:58.865Z,23.70
2022-10-20T22:22:08.629Z,23.70
2022-10-20T22:24:16.709Z,23.70
2022-10-20T22:26:26.779Z,23.80
2022-10-20T22:28:37.012Z,23.70
2022-10-20T22:30:48.177Z,23.70
2022-10-20T22:33:04.239Z,23.60
2022-10-20T22:35:10.727Z,23.60
2022-10-20T22:37:14.704Z,23.70
2022-10-20T22:39:18.691Z,23.60
2022-10-20T22:41:27.214Z,23.60
2022-10-20T22:43:33.234Z,23.60
2022-10-20T22:45:37.305Z,23.70
2022-10-20T22:47:43.697Z,23.70
2022-10-20T22:49:49.727Z,23.70
2022-10-20T22:51:53.949Z,23.70
2022-10-20T22:54:00.600Z,23.70
2022-10-20T22:56:11.789Z,23.70
2022-10-20T22:58:15.748Z,23.70
2022-10-20T23:00:20.224Z,23.80
2022-10-20T23:02:26.805Z,23.70
2022-10-20T23:04:30.956Z,23.70
2022-10-20T23:06:37.373Z,23.70
2022-10-20T23:08:44.124Z,23.60
2022-10-20T23:10:59.935Z,23.70
2022-10-20T23:13:05.995Z,23.70
2022-10-20T23:15:12.432Z,23.60
2022-10-20T23:17:25.135Z,23.70
2022-10-20T23:19:32.927Z,23.70
2022-10-20T23:21:37.323Z,23.80
2022-10-20T23:23:41.699Z,23.70
2022-10-20T23:25:45.742Z,23.70
2022-10-20T23:27:51.668Z,23.70
2022-10-20T23:29:55.671Z,23.70
2022-10-20T23:32:02.828Z,23.60
2022-10-20T23:34:09.018Z,23.40
2022-10-20T23:36:13.905Z,23.40
2022-10-20T23:38:18.430Z,23.60
2022-10-20T23:40:25.365Z,23.50
2022-10-20T23:42:29.551Z,23.40
2022-10-20T23:44:35.659Z,23.40
2022-10-20T23:46:42.019Z,23.40
2022-10-20T23:48:46.243Z,23.40
2022-10-20T23:50:50.884Z,23.50
2022-10-20T23:52:56.804Z,23.50
2022-10-20T23:55:01.232Z,23.50
2022-10-20T23:57:07.614Z,23.60
2022-10-20T23:59:12.324Z,23.70
